Indianapolis, Indiana
Current Conditions -  °F | °C
As of 6:54 AM on Sunday 23 Nov 2014 (Local Time) from KIND Reporting Station
Broken Clouds Broken Clouds  
Wind Chill: 40°   Ceiling: 10000
Heat Index: 45°   Visibility: 10mi
Dew Point: 39°   Wind: 9mph
Humidity: 80%   Direction: 140°SE
Pressure: 29.9"   Gusts: NA
Location:  39.77°N, 86.15°W
Report Text: KIND 231154Z 14008KT 10SM FEW080 BKN100 BKN210 07/04 A2990 RMK AO2 SLP127 60000 70007 T00720039 10100 20067 55007
Loading
Personal Weather Stations






























Interactive Weather Map New forecast layout! Learn more

10-Day Weather Forecast

Advertisements
Track Severe Weather on mobile